createdAt,value
2022-08-11T00:00:52.844Z,3.00
2022-08-11T00:05:06.408Z,2.90
2022-08-11T00:09:18.464Z,2.80
2022-08-11T00:13:35.451Z,3.10
2022-08-11T00:17:46.518Z,3.10
2022-08-11T00:22:04.637Z,3.20
2022-08-11T00:26:15.884Z,3.27
2022-08-11T00:30:24.685Z,2.80
2022-08-11T00:34:38.774Z,2.67
2022-08-11T00:38:53.005Z,3.37
2022-08-11T00:43:20.366Z,3.10
2022-08-11T00:47:46.463Z,3.30
2022-08-11T00:52:15.096Z,2.70
2022-08-11T00:57:30.122Z,2.90
2022-08-11T01:01:50.236Z,2.83
2022-08-11T01:06:17.191Z,3.20
2022-08-11T01:11:00.865Z,3.13
2022-08-11T01:15:40.648Z,3.17
2022-08-11T01:20:46.667Z,2.80
2022-08-11T01:25:24.287Z,3.20
2022-08-11T01:30:20.348Z,3.00
2022-08-11T01:35:26.023Z,3.10
2022-08-11T01:40:31.584Z,3.00
2022-08-11T01:45:09.208Z,2.43
2022-08-11T01:50:06.494Z,3.23
2022-08-11T01:54:03.056Z,2.73
2022-08-11T01:58:21.608Z,3.33
2022-08-11T02:02:59.153Z,2.90
2022-08-11T02:07:19.481Z,3.10
2022-08-11T02:11:35.293Z,2.97
2022-08-11T02:15:51.663Z,2.87
2022-08-11T02:20:27.979Z,2.90
2022-08-11T02:24:43.082Z,2.63
2022-08-11T02:29:01.999Z,2.97
2022-08-11T02:33:25.485Z,3.30
2022-08-11T02:37:49.843Z,3.43
2022-08-11T02:42:32.907Z,3.23
2022-08-11T02:47:03.124Z,3.43
2022-08-11T02:51:22.319Z,2.77
2022-08-11T02:55:48.970Z,2.87
2022-08-11T03:00:09.245Z,3.30
2022-08-11T03:04:25.223Z,2.80
2022-08-11T03:08:53.338Z,2.80
2022-08-11T03:13:33.608Z,2.67
2022-08-11T03:17:51.232Z,3.13
2022-08-11T03:22:12.419Z,2.77
2022-08-11T03:26:29.521Z,3.00
2022-08-11T03:30:49.988Z,3.20
2022-08-11T03:35:01.821Z,2.83
2022-08-11T03:39:19.682Z,3.03
2022-08-11T03:43:58.085Z,3.40
2022-08-11T03:48:20.521Z,3.20
2022-08-11T03:52:44.030Z,3.40
2022-08-11T03:57:28.261Z,3.20
2022-08-11T04:02:15.941Z,3.50
2022-08-11T04:07:01.354Z,3.00
2022-08-11T04:11:41.495Z,3.27
2022-08-11T04:16:31.405Z,2.70
2022-08-11T04:21:00.376Z,3.37
2022-08-11T04:25:31.197Z,2.90
2022-08-11T04:30:03.631Z,3.20
2022-08-11T04:34:46.107Z,3.40
2022-08-11T04:39:12.442Z,3.20
2022-08-11T04:44:02.743Z,3.30
2022-08-11T04:49:25.936Z,2.93
2022-08-11T04:54:13.491Z,3.03
2022-08-11T04:58:47.238Z,3.10
2022-08-11T05:03:31.629Z,3.03
2022-08-11T05:08:18.551Z,3.20
2022-08-11T05:12:37.487Z,2.60
2022-08-11T05:17:10.048Z,2.93
2022-08-11T05:21:45.055Z,3.23
2022-08-11T05:26:47.640Z,2.90
2022-08-11T05:31:02.901Z,2.90
2022-08-11T05:35:59.776Z,3.10
2022-08-11T05:40:05.599Z,2.77
2022-08-11T05:44:39.455Z,2.90
2022-08-11T05:49:09.150Z,3.30
2022-08-11T05:53:40.254Z,3.17
2022-08-11T05:58:01.555Z,2.70
2022-08-11T06:02:10.717Z,3.20
2022-08-11T06:06:19.479Z,2.77
2022-08-11T06:10:33.520Z,2.70
2022-08-11T06:14:48.256Z,2.57
2022-08-11T06:18:57.439Z,2.80
2022-08-11T06:23:10.244Z,3.00
2022-08-11T06:27:21.658Z,3.27
2022-08-11T06:31:34.028Z,2.50
2022-08-11T06:35:53.095Z,2.50
2022-08-11T06:40:10.650Z,2.60
2022-08-11T06:44:29.133Z,2.60
2022-08-11T06:48:41.352Z,2.87
2022-08-11T06:52:50.680Z,2.63
2022-08-11T06:57:32.893Z,3.00
2022-08-11T07:01:49.593Z,2.50
2022-08-11T07:06:07.646Z,2.30
2022-08-11T07:11:01.118Z,2.43
2022-08-11T07:16:10.397Z,2.20
2022-08-11T07:20:18.469Z,2.57
2022-08-11T07:24:59.628Z,2.30
2022-08-11T07:29:14.355Z,2.30
2022-08-11T07:34:05.415Z,2.30
2022-08-11T07:38:13.630Z,2.33
2022-08-11T07:42:32.060Z,2.40
2022-08-11T07:47:00.893Z,2.17
2022-08-11T07:51:27.159Z,2.20
2022-08-11T07:55:51.890Z,2.27
2022-08-11T08:00:21.239Z,2.40
2022-08-11T08:04:47.947Z,2.13
2022-08-11T08:09:15.174Z,2.13
2022-08-11T08:13:41.476Z,1.90
2022-08-11T08:18:08.981Z,2.03
2022-08-11T08:22:39.138Z,2.10
2022-08-11T08:27:01.944Z,2.20
2022-08-11T08:31:10.834Z,1.80
2022-08-11T08:35:22.218Z,2.13
2022-08-11T08:39:33.864Z,2.10
2022-08-11T08:43:47.600Z,2.00
2022-08-11T08:48:02.012Z,2.23
2022-08-11T08:52:29.618Z,2.15
2022-08-11T08:56:44.495Z,1.87
2022-08-11T09:00:56.225Z,1.45
2022-08-11T09:05:07.935Z,2.05
2022-08-11T09:09:19.228Z,1.88
2022-08-11T09:13:29.185Z,2.13
2022-08-11T09:17:41.754Z,1.83
2022-08-11T09:22:13.725Z,1.90
2022-08-11T09:26:41.760Z,1.90
2022-08-11T09:30:55.460Z,1.83
2022-08-11T09:35:04.887Z,1.85
2022-08-11T09:39:32.400Z,1.73
2022-08-11T09:44:04.250Z,1.58
2022-08-11T09:48:23.296Z,1.70
2022-08-11T09:52:34.263Z,1.98
2022-08-11T09:57:05.093Z,2.00
2022-08-11T10:01:27.628Z,1.90
2022-08-11T10:05:57.624Z,1.95
2022-08-11T10:10:07.972Z,1.80
2022-08-11T10:14:40.121Z,1.85
2022-08-11T10:18:53.658Z,1.60
2022-08-11T10:23:21.772Z,1.70
2022-08-11T10:28:17.487Z,1.90
2022-08-11T10:32:18.606Z,1.67
2022-08-11T10:36:28.787Z,1.98
2022-08-11T10:40:40.909Z,2.00
2022-08-11T10:44:53.750Z,1.73
2022-08-11T10:49:03.869Z,2.20
2022-08-11T10:53:32.770Z,1.80
2022-08-11T10:58:04.218Z,1.83
2022-08-11T11:02:16.008Z,1.52
2022-08-11T11:06:30.462Z,1.80
2022-08-11T11:10:42.451Z,2.00
2022-08-11T11:15:17.779Z,1.70
2022-08-11T11:19:27.981Z,1.80
2022-08-11T11:23:42.999Z,1.48
2022-08-11T11:28:07.520Z,1.80
2022-08-11T11:32:27.680Z,1.77
2022-08-11T11:36:46.744Z,1.75
2022-08-11T11:41:09.613Z,1.90
2022-08-11T11:45:24.036Z,1.65
2022-08-11T11:49:39.529Z,1.80
2022-08-11T11:53:49.924Z,1.50
2022-08-11T11:58:19.223Z,1.95
2022-08-11T12:02:28.360Z,1.70
2022-08-11T12:06:39.420Z,1.73
2022-08-11T12:10:50.612Z,1.80
2022-08-11T12:14:59.770Z,1.42
2022-08-11T12:19:11.991Z,1.88
2022-08-11T12:23:39.763Z,1.83
2022-08-11T12:27:48.955Z,1.67
2022-08-11T12:31:58.880Z,1.77
2022-08-11T12:36:09.772Z,1.60
2022-08-11T12:41:11.892Z,1.75
2022-08-11T12:45:29.747Z,1.90
2022-08-11T12:50:04.162Z,1.80
2022-08-11T12:54:17.375Z,1.95
2022-08-11T12:58:29.863Z,2.22
2022-08-11T13:02:56.140Z,1.83
2022-08-11T13:07:05.627Z,2.00
2022-08-11T13:11:55.610Z,1.88
2022-08-11T13:16:05.085Z,1.85
2022-08-11T13:20:14.897Z,1.85
2022-08-11T13:24:24.143Z,1.90
2022-08-11T13:28:35.402Z,1.95
2022-08-11T13:32:47.412Z,1.80
2022-08-11T13:37:00.308Z,1.73
2022-08-11T13:41:29.565Z,2.05
2022-08-11T13:45:38.949Z,1.63
2022-08-11T13:49:49.303Z,1.98
2022-08-11T13:53:59.062Z,1.70
2022-08-11T13:58:19.435Z,1.67
2022-08-11T14:02:44.507Z,1.90
2022-08-11T14:07:00.287Z,1.90
2022-08-11T14:12:21.267Z,1.95
2022-08-11T14:16:02.519Z,1.80
2022-08-11T14:20:40.453Z,1.90
2022-08-11T14:24:49.742Z,1.90
2022-08-11T14:29:03.565Z,1.80
2022-08-11T14:33:12.540Z,2.10
2022-08-11T14:37:29.309Z,1.77
2022-08-11T14:42:11.716Z,2.53
2022-08-11T14:46:47.960Z,2.47
2022-08-11T14:50:57.568Z,2.63
2022-08-11T14:55:26.232Z,1.85
2022-08-11T14:59:37.194Z,2.00
2022-08-11T15:04:25.028Z,2.00
2022-08-11T15:08:17.958Z,2.55
2022-08-11T15:12:32.254Z,2.42
2022-08-11T15:17:09.448Z,2.20
2022-08-11T15:21:35.702Z,1.98
2022-08-11T15:25:52.497Z,1.90
2022-08-11T15:30:32.646Z,1.75
2022-08-11T15:35:03.708Z,1.80
2022-08-11T15:39:21.248Z,2.20
2022-08-11T15:43:51.219Z,2.10
2022-08-11T15:48:08.373Z,2.30
2022-08-11T15:52:24.647Z,2.30
2022-08-11T15:56:34.502Z,2.10
2022-08-11T16:01:04.152Z,2.03
2022-08-11T16:05:45.070Z,2.28
2022-08-11T16:09:54.955Z,2.20
2022-08-11T16:14:27.731Z,2.03
2022-08-11T16:18:44.181Z,1.90
2022-08-11T16:23:01.921Z,1.90
2022-08-11T16:27:14.693Z,1.90
2022-08-11T16:31:24.681Z,2.20
2022-08-11T16:35:53.666Z,1.90
2022-08-11T16:40:02.821Z,1.70
2022-08-11T16:44:37.720Z,2.00
2022-08-11T16:48:50.005Z,1.70
2022-08-11T16:52:58.859Z,1.95
2022-08-11T16:57:27.468Z,1.60
2022-08-11T17:01:39.240Z,1.95
2022-08-11T17:06:09.773Z,1.70
2022-08-11T17:10:53.320Z,1.95
2022-08-11T17:15:27.292Z,2.00
2022-08-11T17:20:40.092Z,1.80
2022-08-11T17:24:15.243Z,1.52
2022-08-11T17:28:25.980Z,1.88
2022-08-11T17:32:56.768Z,2.22
2022-08-11T17:37:10.533Z,1.65
2022-08-11T17:41:37.979Z,2.25
2022-08-11T17:46:08.135Z,1.88
2022-08-11T17:50:18.460Z,1.70
2022-08-11T17:54:46.902Z,1.77
2022-08-11T17:59:15.136Z,1.80
2022-08-11T18:03:33.259Z,2.00
2022-08-11T18:08:01.256Z,1.80
2022-08-11T18:12:30.305Z,1.98
2022-08-11T18:16:56.566Z,2.25
2022-08-11T18:21:24.769Z,1.95
2022-08-11T18:25:52.576Z,2.25
2022-08-11T18:30:21.940Z,1.85
2022-08-11T18:34:51.910Z,2.00
2022-08-11T18:39:18.615Z,2.22
2022-08-11T18:43:46.706Z,2.17
2022-08-11T18:48:19.514Z,2.00
2022-08-11T18:52:48.197Z,2.40
2022-08-11T18:57:18.399Z,2.35
2022-08-11T19:01:46.191Z,2.42
2022-08-11T19:06:38.271Z,2.63
2022-08-11T19:11:03.877Z,2.88
2022-08-11T19:15:32.614Z,3.05
2022-08-11T19:20:00.941Z,3.45
2022-08-11T19:24:28.882Z,3.60
2022-08-11T19:28:57.875Z,3.38
2022-08-11T19:34:02.983Z,3.47
2022-08-11T19:38:11.346Z,2.85
2022-08-11T19:42:38.887Z,2.72
2022-08-11T19:47:06.960Z,2.47
2022-08-11T19:51:34.054Z,2.92
2022-08-11T19:56:00.963Z,2.70
2022-08-11T20:00:32.893Z,3.20
2022-08-11T20:04:58.965Z,4.03
2022-08-11T20:09:27.024Z,4.50
2022-08-11T20:14:14.166Z,4.93
2022-08-11T20:18:43.066Z,4.20
2022-08-11T20:23:12.100Z,3.70
2022-08-11T20:27:38.881Z,4.30
2022-08-11T20:32:06.447Z,3.90
2022-08-11T20:36:36.966Z,3.27
2022-08-11T20:41:05.305Z,3.23
2022-08-11T20:45:33.780Z,3.40
2022-08-11T20:50:03.064Z,2.90
2022-08-11T20:54:38.440Z,3.33
2022-08-11T20:59:17.353Z,2.90
2022-08-11T21:03:54.957Z,2.70
2022-08-11T21:08:27.057Z,3.10
2022-08-11T21:12:58.962Z,3.00
2022-08-11T21:18:00.503Z,2.53
2022-08-11T21:22:37.162Z,2.67
2022-08-11T21:27:06.337Z,2.93
2022-08-11T21:31:34.637Z,2.70
2022-08-11T21:36:01.438Z,3.10
2022-08-11T21:40:29.791Z,2.43
2022-08-11T21:44:57.170Z,2.90
2022-08-11T21:49:27.384Z,2.40
2022-08-11T21:53:54.039Z,3.07
2022-08-11T21:58:21.135Z,2.43
2022-08-11T22:02:49.068Z,2.60
2022-08-11T22:07:21.935Z,2.90
2022-08-11T22:11:48.208Z,2.40
2022-08-11T22:16:34.213Z,2.73
2022-08-11T22:21:01.428Z,2.50
2022-08-11T22:25:38.344Z,3.00
2022-08-11T22:30:05.028Z,2.83
2022-08-11T22:34:32.151Z,2.53
2022-08-11T22:39:08.570Z,2.67
2022-08-11T22:43:36.346Z,2.80
2022-08-11T22:48:06.065Z,2.70
2022-08-11T22:52:33.445Z,2.53
2022-08-11T22:57:00.519Z,2.63
2022-08-11T23:01:28.723Z,2.70
2022-08-11T23:05:56.808Z,2.60
2022-08-11T23:10:23.538Z,2.67
2022-08-11T23:14:51.072Z,2.70
2022-08-11T23:20:08.680Z,2.70
2022-08-11T23:24:07.573Z,2.60
2022-08-11T23:28:35.545Z,2.63
2022-08-11T23:33:04.666Z,2.80
2022-08-11T23:37:32.111Z,2.83
2022-08-11T23:42:02.522Z,2.97
2022-08-11T23:46:29.312Z,2.63
2022-08-11T23:50:55.711Z,2.73
2022-08-11T23:55:25.135Z,2.93
2022-08-11T23:59:51.420Z,2.93
